Tiempo atmosférico en la estación meteorológica de Osa De La Vega, Cuenca (763 m.)



Fecha
DESCASC
Temp. máxima en grados centígrados (hora)
DESCASC
Temp. mínima en grados centígrados (hora)
DESCASC
Temp. media en grados centígrados
DESCASC
Racha de viento máxima en m/sg (hora)
DESCASC
Velocidad máxima media en intervalos de 10 minutos(hora)
DESCASC
Precipitaciones diarias en mm
DESCASC
Precipitaciones de 00:00 a 06:00 en mm
DESCASC
Precipitaciones de 06:00 a 12:00 en mm
DESCASC
Precipitaciones de 12:00 a 18:00 en mm
DESCASC
Precipitaciones de 18:00 a 24:00 en mm
DESCASC
18-04-2019 11.6 (00:00) 8.4 (12:50) 10 9.17 (15:20) 5.28 (15:20) 32.2 5.6 22.4 4.2 0
17-04-2019 22.4 (17:10) 8.9 (04:10) 15.6 16.39 (17:30) 10 (17:00) 0 0 0 0 0
16-04-2019 23.1 (18:00) 5.7 (00:00) 14.4 12.78 (22:30) 7.78 (22:30) 0 0 0 0 0
15-04-2019 24.9 (17:20) 7.5 (00:00) 16.2 13.33 (18:20) 7.78 (16:00) 0 0 0 0 0
14-04-2019 23.6 (19:00) 5 (00:00) 14.3 6.94 (20:30) 5 (20:30) 0 0 0 0 0
13-04-2019 20.6 (18:20) 1.2 (00:00) 10.9 6.94 (16:40) 2.78 (17:40) 0 0 0 0 0
12-04-2019 16.6 (18:00) 2 (00:00) 9.3 9.44 (16:50) 5.28 (12:40) 0 0 0 0 0
11-04-2019 15 (18:20) 1.9 (00:00) 8.4 11.67 (16:20) 5.83 (17:20) 0 0 0 0 0
10-04-2019 13.4 (16:20) 2.9 (00:00) 8.1 14.72 (17:10) 8.33 (17:20) 0 0 0 0 0
09-04-2019 11.9 (14:10) 3.4 (00:00) 7.6 11.67 (18:20) 6.39 (18:20) 1.4 0 0.2 1.2 0
08-04-2019 16 (17:10) 7.6 (00:00) 11.8 11.94 (13:30) 4.72 (12:20) 4.4 2 1.8 0.6 0
07-04-2019 11.9 (18:00) 1.6 (00:00) 6.7 10 (09:40) 5 (18:10) 1 0.6 0 0 0.4
06-04-2019 9.9 (18:20) 3.3 (00:00) 6.6 11.67 (15:10) 7.22 (18:40) 1.2 0.2 0 1 0
05-04-2019 8.1 (00:50) 3 (00:00) 5.6 12.22 (15:10) 7.22 (15:00) 8.2 0 2 3.8 2.4
04-04-2019 14.5 (18:50) -1.1 (-00:0) 6.7 7.78 (18:10) 4.72 (19:10) 0 0 0 0 0
03-04-2019 17 (15:20) 4.3 (00:00) 10.7 10.56 (14:10) 6.11 (12:50) 0 0 0 0 0
02-04-2019 17 (18:50) 7.4 (00:00) 12.2 10.28 (19:10) 5.83 (19:10) 0.4 0.2 0 0.2 0
01-04-2019 15.1 (15:00) 8.1 (00:00) 11.6 10.28 (17:30) 7.22 (17:50) 4.2 3.8 0.4 0 0
31-03-2019 10.1 (16:20) 6.2 (00:00) 8.2 9.72 (08:00) 5.56 (08:10) 12.6 0 4 4 4.6
30-03-2019 18.8 (16:20) 2.9 (00:00) 10.8 9.44 (09:30) 5.83 (09:30) 0 0 0 0 0
29-03-2019 17 (17:10) 1.1 (00:00) 9.1 14.17 (13:10) 8.61 (13:50) 0 0 0 0 0
28-03-2019 18.9 (16:40) 1.1 (00:00) 10 8.33 (12:00) 4.72 (12:50) 0 0 0 0 0
27-03-2019 19.1 (17:30) 2.6 (00:00) 10.9 13.06 (00:10) 6.67 (00:10) 0 0 0 0 0
26-03-2019 20.1 (15:50) 3.7 (00:00) 11.9 11.67 (12:50) 7.22 (12:50) 0 0 0 0 0
25-03-2019 22.4 (17:00) 3.3 (00:00) 12.8 7.5 (13:40) 3.33 (12:50) 0 0 0 0 0
24-03-2019 20.6 (16:10) 3.4 (00:00) 12 12.5 (14:20) 7.22 (13:20) 0 0 0 0 0
23-03-2019 19.3 (14:50) 2.1 (00:00) 10.7 12.5 (12:40) 6.94 (15:40) 0 0 0 0 0
22-03-2019 18.1 (15:40) -1 (-00:0) 8.6 9.72 (14:50) 5.83 (13:10) 0 0 0 0 0
21-03-2019 16 (17:10) -0.2 (00:00) 7.9 8.89 (14:00) 4.72 (15:10) 0 0 0 0 0

Gráficas

Temp. máximas Temp. mínimas Temp. medias Precipitaciones Rachas de viento máximas Velocidades máximas media en intervalos de 10 minutos

Datos horarios

Fecha y hora oficial Temperatura (ºC) Velocidad del viento (km/h) Dirección del viento Racha (km/h) Dirección de racha Precipitación (mm) Presión (hPa) Tendencia (hPa) Humedad (%)
2019-04-19 23:00:00 7.6 4 Norte 8 Norte 0.6 -- -- 97
2019-04-19 22:00:00 7.5 6 Norte 10 Norte 1.2 -- -- 96
2019-04-19 21:00:00 7.7 0 Calma 5 Norte 1.4 -- -- 96
2019-04-19 20:00:00 7.8 0 Calma 3 Noroeste 2 -- -- 96
2019-04-19 19:00:00 7.8 0 Calma 5 Nordeste 2.2 -- -- 95
2019-04-19 18:00:00 7.8 3 Nordeste 12 Norte 2.6 -- -- 94
2019-04-19 17:00:00 7.9 5 Nordeste 15 Nordeste 3 -- -- 94
2019-04-19 16:00:00 8.3 10 Nordeste 21 Nordeste 3.8 -- -- 94
2019-04-19 15:00:00 8.8 7 Este 19 Este 4.8 -- -- 93
2019-04-19 14:00:00 9.7 4 Este 12 Este 4.4 -- -- 93
2019-04-19 13:00:00 10.5 5 Este 15 Sudeste 0.4 -- -- 86
2019-04-19 12:00:00 10.7 11 Sudeste 18 Este 0 -- -- 86
2019-04-19 11:00:00 10 6 Este 13 Este 0 -- -- 90
2019-04-19 10:00:00 9.2 6 Este 12 Este 0 -- -- 94
2019-04-19 09:00:00 8.6 3 Este 6 Este 0 -- -- 96
2019-04-19 08:00:00 8.4 4 Este 8 Sudeste 0 -- -- 96
2019-04-19 07:00:00 8.5 3 Sudeste 9 Sudeste 0 -- -- 96
2019-04-19 06:00:00 8.6 4 Sudeste 11 Sudeste 0 -- -- 96
2019-04-19 05:00:00 8.5 5 Sudeste 15 Este 0 -- -- 95
2019-04-19 04:00:00 8.4 4 Sudeste 12 Este 0 -- -- 96
2019-04-19 03:00:00 8.1 4 Sudeste 10 Este 0 -- -- 95
2019-04-19 02:00:00 8.1 4 Este 12 Este 0 -- -- 94
2019-04-19 01:00:00 8.4 5 Este 12 Este 0 -- -- 95
2019-04-19 00:00:00 8.4 0 Calma 9 Sudeste 0 -- -- 95
2019-04-18 23:00:00 8.6 5 Sudeste 8 Sudeste 0 -- -- 94
2019-04-18 22:00:00 9.6 5 Sudeste 13 Sudeste 0 -- -- 91
2019-04-18 21:00:00 9.9 9 Sudeste 16 Sudeste 0 -- -- 89
2019-04-18 20:00:00 10.5 8 Sudeste 14 Sudeste 0 -- -- 87
2019-04-18 19:00:00 10.6 6 Sudeste 15 Sur 0 -- -- 87
2019-04-18 18:00:00 10.7 8 Sur 16 Sur 0 -- -- 88
2019-04-18 17:00:00 11 10 Sur 19 Este 0 -- -- 85
2019-04-18 16:00:00 10.7 9 Este 33 Nordeste 0 -- -- 89
2019-04-18 15:00:00 9.4 11 Nordeste 23 Nordeste 0.4 -- -- 92
2019-04-18 14:00:00 8.9 7 Norte 15 Norte 1.4 -- -- 93
2019-04-18 13:00:00 8.4 4 Oeste 14 Oeste 2.4 -- -- 93
2019-04-18 12:00:00 8.5 6 Sudoeste 17 Sudoeste 2.8 -- -- 93
2019-04-18 11:00:00 8.9 12 Sudeste 19 Sudeste 3.2 -- -- 97
2019-04-18 10:00:00 9.1 10 Sudeste 19 Este 3.8 -- -- 96
2019-04-18 09:00:00 8.9 3 Nordeste 16 Oeste 3 -- -- 94
2019-04-18 08:00:00 9.1 7 Sudeste 28 Sudeste 4.8 -- -- 96
2019-04-18 07:00:00 9.5 12 Sudeste 33 Este 4.8 -- -- 95
2019-04-18 06:00:00 9.2 17 Este 31 Sudeste 5 -- -- 94
2019-04-18 05:00:00 9.6 5 Este 13 Sur 0.6 -- -- 90
2019-04-18 04:00:00 9.9 8 Sudeste 24 Este 0 -- -- 87
2019-04-18 03:00:00 10.3 11 Sudeste 26 Este 0 -- -- 85
2019-04-18 02:00:00 10.9 9 Este 30 Este 0 -- -- 81
2019-04-18 01:00:00 11.3 8 Sudeste 23 Este 0 -- -- 78
2019-04-18 00:00:00 11.6 14 Este 31 Sudeste 0 -- -- 78
2019-04-17 23:00:00 12.5 7 Este 30 Este 0 -- -- 75
2019-04-17 22:00:00 13.9 15 Este 31 Este 0 -- -- 71
2019-04-17 21:00:00 15.5 18 Sudeste 42 Sudeste 0 -- -- 65
2019-04-17 20:00:00 17.7 23 Sudeste 49 Este 0 -- -- 56
2019-04-17 19:00:00 19.2 31 Este 54 Este 0 -- -- 51
2019-04-17 18:00:00 22.1 34 Sudeste 59 Sudeste 0 -- -- 40
2019-04-17 17:00:00 21.3 36 Sudeste 57 Sudeste 0 -- -- 37
2019-04-17 16:00:00 20.9 33 Este 53 Este 0 -- -- 38
2019-04-17 15:00:00 21.1 29 Este 48 Este 0 -- -- 41
2019-04-17 14:00:00 19.1 27 Este 44 Sudeste 0 -- -- 50
2019-04-17 13:00:00 17.2 28 Sudeste 45 Este 0 -- -- 55
2019-04-17 12:00:00 14.9 29 Sudeste 48 Este 0 -- -- 62
2019-04-17 11:00:00 13.1 27 Sudeste 49 Este 0 -- -- 68
2019-04-17 10:00:00 11.4 25 Este 45 Sudeste 0 -- -- 76
2019-04-17 09:00:00 9.7 22 Sudeste 44 Este 0 -- -- 83
2019-04-17 08:00:00 9 18 Sudeste 39 Este 0 -- -- 87
2019-04-17 07:00:00 8.9 22 Este 39 Este 0 -- -- 88
2019-04-17 06:00:00 8.9 12 Sudeste 32 Este 0 -- -- 87
2019-04-17 05:00:00 8.9 18 Sudeste 37 Este 0 -- -- 87
2019-04-17 04:00:00 9 16 Sudeste 32 Este 0 -- -- 84
2019-04-17 03:00:00 9.7 15 Este 33 Este 0 -- -- 79
2019-04-17 02:00:00 10.3 8 Sudeste 42 Este 0 -- -- 76
2019-04-17 01:00:00 10.9 25 Este 43 Este 0 -- -- 75
2019-04-17 00:00:00 11.8 27 Este 41 Sudeste 0 -- -- 72
2019-04-16 23:00:00 13.3 25 Este 46 Sudeste 0 -- -- 69
2019-04-16 22:00:00 15.4 25 Este 40 Este 0 -- -- 63
2019-04-16 21:00:00 18 5 Sudeste 19 Sudeste 0 -- -- 38
2019-04-16 20:00:00 21.2 14 Sudeste 24 Sudeste 0 -- -- 33
2019-04-16 19:00:00 22.8 13 Sudeste 28 Sur 0 -- -- 27
2019-04-16 18:00:00 23.1 14 Sudeste 27 Sudeste 0 -- -- 28
2019-04-16 17:00:00 22.7 13 Sudeste 27 Sur 0 -- -- 30
2019-04-16 16:00:00 21.5 9 Sur 32 Sudeste 0 -- -- 33
2019-04-16 15:00:00 20.1 5 Sudeste 19 Sur 0 -- -- 35
2019-04-16 14:00:00 18.9 8 Sudeste 20 Sudeste 0 -- -- 40
2019-04-16 13:00:00 16.7 6 Sudeste 18 Sudeste 0 -- -- 49
2019-04-16 12:00:00 14.6 5 Este 16 Este 0 -- -- 55
2019-04-16 11:00:00 13.2 8 Este 21 Nordeste 0 -- -- 62
2019-04-16 10:00:00 11 9 Nordeste 17 Este 0 -- -- 71
2019-04-16 09:00:00 6.9 2 Noroeste 7 Norte 0 -- -- 89
2019-04-16 08:00:00 6.2 4 Norte 12 Norte 0 -- -- 87
2019-04-16 07:00:00 7.3 6 Norte 12 Norte 0 -- -- 89
2019-04-16 06:00:00 7.6 4 Norte 12 Norte 0 -- -- 84
2019-04-16 05:00:00 8.6 5 Noroeste 18 Oeste 0 -- -- 82
2019-04-16 04:00:00 7.9 3 Norte 9 Noroeste 0 -- -- 84
2019-04-16 03:00:00 9.1 3 Norte 12 Noroeste 0 -- -- 81
2019-04-16 02:00:00 10.3 4 Noroeste 20 Noroeste 0 -- -- 78
2019-04-16 01:00:00 11.7 12 Noroeste 30 Noroeste 0 -- -- 69
2019-04-16 00:00:00 13 17 Noroeste 34 Noroeste 0 -- -- 64
2019-04-15 23:00:00 13.4 20 Noroeste 42 Oeste 0 -- -- 67
2019-04-15 22:00:00 14.6 17 Noroeste 46 Noroeste 0 -- -- 61
2019-04-15 21:00:00 18.4 12 Noroeste 26 Oeste 0 -- -- 44
2019-04-15 20:00:00 21.3 18 Sudoeste 37 Sudoeste 0 -- -- 31
2019-04-15 19:00:00 23.4 23 Sudoeste 48 Sudoeste 0 -- -- 28
2019-04-15 18:00:00 24.3 23 Sudoeste 40 Sudoeste 0 -- -- 28
2019-04-15 17:00:00 24.7 24 Sudoeste 42 Sur 0 -- -- 29
2019-04-15 16:00:00 24 28 Sudoeste 40 Sudoeste 0 -- -- 33
2019-04-15 15:00:00 22.4 21 Sur 34 Sur 0 -- -- 45
2019-04-15 14:00:00 21.6 17 Sur 30 Sur 0 -- -- 52
2019-04-15 13:00:00 20.7 19 Sur 29 Sur 0 -- -- 52
2019-04-15 12:00:00 19.8 16 Sudeste 27 Sudeste 0 -- -- 58
2019-04-15 11:00:00 17 8 Sudeste 19 Sudeste 0 -- -- 69
2019-04-15 10:00:00 12 0 Calma 3 Noroeste 0 -- -- 85
2019-04-15 09:00:00 9 2 Norte 6 Norte 0 -- -- 89
2019-04-15 08:00:00 7.8 0 Calma 8 Oeste 0 -- -- 87
2019-04-15 07:00:00 8.3 0 Calma 4 Noroeste 0 -- -- 86
2019-04-15 06:00:00 8.6 3 Norte 5 Noroeste 0 -- -- 83
2019-04-15 05:00:00 9.5 2 Noroeste 5 Noroeste 0 -- -- 81
2019-04-15 04:00:00 11 0 Calma 4 Sur 0 -- -- 77
2019-04-15 03:00:00 12.2 0 Calma 11 Sur 0 -- -- 75
2019-04-15 02:00:00 14 4 Norte 7 Norte 0 -- -- 70
2019-04-15 01:00:00 14.8 3 Sudoeste 12 Sudoeste 0 -- -- 67
2019-04-15 00:00:00 14.4 2 Este 8 Sudeste 0 -- -- 66
2019-04-14 23:00:00 15.2 3 Este 13 Sudoeste 0 -- -- 63
2019-04-14 22:00:00 16.9 11 Sudoeste 24 Sur 0 -- -- 59
2019-04-14 21:00:00 18.5 15 Sudoeste 25 Sur 0 -- -- 54
2019-04-14 20:00:00 22.6 4 Sudoeste 15 Oeste 0 -- -- 40
2019-04-14 19:00:00 23.6 5 Oeste 16 Sudoeste 0 -- -- 36
2019-04-14 18:00:00 23.3 9 Sudoeste 19 Noroeste 0 -- -- 38
2019-04-14 17:00:00 22.8 10 Sudoeste 21 Sudoeste 0 -- -- 41
2019-04-14 16:00:00 22.4 10 Sudoeste 22 Sudoeste 0 -- -- 43
2019-04-14 15:00:00 20.9 9 Sudoeste 20 Noroeste 0 -- -- 45
2019-04-14 14:00:00 19.7 9 Sudoeste 20 Sudoeste 0 -- -- 48
2019-04-14 13:00:00 17.8 7 Sudoeste 16 Sudoeste 0 -- -- 55
2019-04-14 12:00:00 15.9 3 Sur 14 Sudeste 0 -- -- 63
2019-04-14 11:00:00 13.2 6 Sur 10 Sudoeste 0 -- -- 70
2019-04-14 10:00:00 9.8 0 Calma 4 Sudeste 0 -- -- 75
2019-04-14 09:00:00 5.6 0 Calma 3 Nordeste 0 -- -- 81
2019-04-14 08:00:00 5.2 2 Nordeste 4 Nordeste 0 -- -- 76
2019-04-14 07:00:00 6.6 0 Calma 4 Este 0 -- -- 70
2019-04-14 06:00:00 8.5 0 Calma 9 Norte 0 -- -- 65
2019-04-14 05:00:00 7.5 3 Nordeste 12 Noroeste 0 -- -- 66
2019-04-14 04:00:00 5.3 0 Calma 6 Sudeste 0 -- -- 63
2019-04-14 03:00:00 5.4 0 Calma 15 Oeste 0 -- -- 57
2019-04-14 02:00:00 5.5 0 Calma 4 Sudeste 0 -- -- 53
2019-04-14 01:00:00 6.1 0 Calma 4 Este 0 -- -- 52
2019-04-14 00:00:00 7.8 0 Calma 3 Noroeste 0 -- -- 49
2019-04-13 23:00:00 9.9 0 Calma 5 Norte 0 -- -- 43
2019-04-13 22:00:00 12.7 5 Norte 8 Norte 0 -- -- 35
2019-04-13 21:00:00 15.7 4 Norte 11 Noroeste 0 -- -- 28
2019-04-13 20:00:00 19.2 6 Noroeste 14 Sudoeste 0 -- -- 20
2019-04-13 19:00:00 20.3 6 Oeste 21 Noroeste 0 -- -- 19
2019-04-13 18:00:00 20.4 8 Noroeste 22 Noroeste 0 -- -- 20
2019-04-13 17:00:00 20 7 Oeste 25 Sudoeste 0 -- -- 21
2019-04-13 16:00:00 19.1 7 Noroeste 19 Noroeste 0 -- -- 24
2019-04-13 15:00:00 18 9 Noroeste 21 Norte 0 -- -- 26
2019-04-13 14:00:00 16.7 9 Noroeste 19 Noroeste 0 -- -- 29
2019-04-13 13:00:00 14.9 8 Noroeste 19 Noroeste 0 -- -- 34
2019-04-13 12:00:00 13.9 8 Noroeste 17 Oeste 0 -- -- 36
2019-04-13 11:00:00 11.6 4 Oeste 10 Noroeste 0 -- -- 39
2019-04-13 10:00:00 8.3 4 Norte 10 Norte 0 -- -- 58
2019-04-13 09:00:00 3.4 5 Norte 10 Noroeste 0 -- -- 75
2019-04-13 08:00:00 1.3 3 Noroeste 11 Noroeste 0 -- -- 76
2019-04-13 07:00:00 2.2 3 Norte 9 Nordeste 0 -- -- 74
2019-04-13 06:00:00 3.7 3 Norte 8 Norte 0 -- -- 70
2019-04-13 05:00:00 3.3 3 Nordeste 7 Norte 0 -- -- 71
2019-04-13 04:00:00 3.8 3 Norte 13 Noroeste 0 -- -- 71
2019-04-13 03:00:00 4 0 Calma 5 Noroeste 0 -- -- 70
2019-04-13 02:00:00 4.8 2 Norte 7 Norte 0 -- -- 67
2019-04-13 01:00:00 6.9 4 Norte 17 Norte 0 -- -- 60
2019-04-13 00:00:00 6.7 2 Noroeste 8 Noroeste 0 -- -- 61
2019-04-12 23:00:00 8.3 0 Calma 7 Noroeste 0 -- -- 57
2019-04-12 22:00:00 10.6 3 Norte 9 Noroeste 0 -- -- 47
2019-04-12 21:00:00 13 5 Noroeste 17 Noroeste 0 -- -- 41
2019-04-12 20:00:00 15.6 11 Noroeste 23 Oeste 0 -- -- 33
2019-04-12 19:00:00 16.6 13 Noroeste 27 Noroeste 0 -- -- 31
2019-04-12 18:00:00 16.6 11 Noroeste 30 Noroeste 0 -- -- 35
2019-04-12 17:00:00 15.9 15 Noroeste 34 Noroeste 0 -- -- 37
2019-04-12 16:00:00 15.2 15 Noroeste 31 Noroeste 0 -- -- 39
2019-04-12 15:00:00 14.3 14 Noroeste 32 Noroeste 0 -- -- 42
2019-04-12 14:00:00 13.5 13 Norte 33 Norte 0 -- -- 44
2019-04-12 13:00:00 11.3 12 Norte 31 Norte 0 -- -- 50
2019-04-12 12:00:00 10.3 16 Norte 27 Noroeste 0 -- -- 54
2019-04-12 11:00:00 8.4 12 Norte 22 Norte 0 -- -- 64
2019-04-12 10:00:00 6.2 10 Norte 18 Norte 0 -- -- 73
2019-04-12 09:00:00 3 5 Norte 9 Norte 0 -- -- 85
2019-04-12 08:00:00 2.4 4 Norte 8 Norte 0 -- -- 83
2019-04-12 07:00:00 2.2 5 Noroeste 8 Noroeste 0 -- -- 84
2019-04-12 06:00:00 2.3 3 Noroeste 6 Oeste 0 -- -- 85
2019-04-12 05:00:00 2.2 6 Noroeste 10 Noroeste 0 -- -- 86
2019-04-12 04:00:00 2.7 3 Oeste 8 Noroeste 0 -- -- 81
2019-04-12 03:00:00 3.8 5 Norte 9 Norte 0 -- -- 77
2019-04-12 02:00:00 4.8 4 Noroeste 12 Norte 0 -- -- 72
2019-04-12 01:00:00 5.7 5 Norte 11 Norte 0 -- -- 68
2019-04-12 00:00:00 6.7 6 Norte 14 Norte 0 -- -- 63
2019-04-11 23:00:00 7.2 5 Norte 9 Noroeste 0 -- -- 62
2019-04-11 22:00:00 8.8 5 Norte 16 Norte 0 -- -- 56
2019-04-11 21:00:00 11.3 10 Noroeste 25 Norte 0 -- -- 46
2019-04-11 20:00:00 13.9 13 Norte 32 Norte 0 -- -- 36
2019-04-11 19:00:00 14.2 14 Noroeste 34 Norte 0 -- -- 35
2019-04-11 18:00:00 14.9 21 Norte 36 Norte 0 -- -- 33
2019-04-11 17:00:00 14.7 18 Norte 42 Norte 0 -- -- 33
2019-04-11 16:00:00 14.1 16 Norte 36 Noroeste 0 -- -- 42
2019-04-11 15:00:00 13.4 17 Norte 33 Noroeste 0 -- -- 44
2019-04-11 14:00:00 12.5 15 Noroeste 31 Noroeste 0 -- -- 50
2019-04-11 13:00:00 11 16 Noroeste 31 Norte 0 -- -- 54
2019-04-11 12:00:00 9.7 16 Norte 36 Norte 0 -- -- 58
2019-04-11 11:00:00 8.1 18 Norte 36 Norte 0 -- -- 67
2019-04-11 10:00:00 6.4 11 Norte 26 Norte 0 -- -- 78
2019-04-11 09:00:00 3.2 6 Norte 12 Norte 0 -- -- 89
2019-04-11 08:00:00 2.2 4 Norte 15 Norte 0 -- -- 89
2019-04-11 07:00:00 2.1 6 Norte 12 Norte 0 -- -- 89
2019-04-11 06:00:00 2.5 4 Norte 10 Norte 0 -- -- 87
2019-04-11 05:00:00 3.1 5 Noroeste 10 Noroeste 0 -- -- 87
2019-04-11 04:00:00 3.5 2 Noroeste 6 Noroeste 0 -- -- 86
2019-04-11 03:00:00 4.4 2 Noroeste 10 Norte 0 -- -- 83
2019-04-11 02:00:00 4.8 4 Norte 8 Noroeste 0 -- -- 83
2019-04-11 01:00:00 5.9 5 Noroeste 9 Norte 0 -- -- 81
2019-04-11 00:00:00 5.9 3 Noroeste 6 Norte 0 -- -- 82
2019-04-10 23:00:00 6.7 0 Calma 9 Norte 0 -- -- 82
2019-04-10 22:00:00 7.8 6 Norte 12 Norte 0 -- -- 78
2019-04-10 21:00:00 8.9 6 Oeste 14 Oeste 0 -- -- 71
2019-04-10 20:00:00 10.1 4 Noroeste 15 Sudoeste 0 -- -- 64
2019-04-10 19:00:00 10.3 12 Sudoeste 20 Nordeste 0 -- -- 66
2019-04-10 18:00:00 9.5 15 Norte 53 Nordeste 0 -- -- 63
2019-04-10 17:00:00 12.1 18 Noroeste 32 Noroeste 0 -- -- 49
2019-04-10 16:00:00 12.9 17 Noroeste 35 Noroeste 0 -- -- 51
2019-04-10 15:00:00 11.3 20 Noroeste 36 Oeste 0 -- -- 51
2019-04-10 14:00:00 11.4 17 Noroeste 42 Noroeste 0 -- -- 50
2019-04-10 13:00:00 10.2 20 Noroeste 39 Noroeste 0 -- -- 54
2019-04-10 12:00:00 9 18 Noroeste 30 Oeste 0 -- -- 68
2019-04-10 11:00:00 7.2 12 Noroeste 30 Oeste 0 -- -- 82
2019-04-10 10:00:00 5.6 7 Oeste 24 Oeste 0 -- -- 90
2019-04-10 09:00:00 4.2 12 Noroeste 19 Noroeste 0 -- -- 93
2019-04-10 08:00:00 2.9 4 Noroeste 10 Noroeste 0 -- -- 93
2019-04-10 07:00:00 3.5 2 Norte 11 Oeste 0 -- -- 93
2019-04-10 06:00:00 3.9 2 Nordeste 7 Oeste 0 -- -- 92
2019-04-10 05:00:00 4.4 0 Calma 4 Oeste 0 -- -- 89
2019-04-10 04:00:00 4.9 0 Calma 5 Oeste 0 -- -- 90
2019-04-10 03:00:00 5.4 3 Norte 13 Noroeste 0 -- -- 88
2019-04-10 02:00:00 6.8 6 Noroeste 29 Noroeste 0 -- -- 83
2019-04-10 01:00:00 5.1 2 Sudeste 5 Sudeste 0 -- -- 87
2019-04-10 00:00:00 6.2 3 Noroeste 17 Noroeste 0 -- -- 82
2019-04-09 23:00:00 6.2 0 Calma 10 Oeste 0 -- -- 83
2019-04-09 22:00:00 7.7 4 Noroeste 19 Oeste 0 -- -- 76
2019-04-09 21:00:00 8.3 8 Noroeste 25 Noroeste 0 -- -- 73
2019-04-09 20:00:00 9.2 12 Noroeste 30 Oeste 0 -- -- 65
2019-04-09 19:00:00 9.5 9 Noroeste 42 Noroeste 0 -- -- 64
2019-04-09 18:00:00 11.4 16 Oeste 34 Oeste 0 -- -- 62
2019-04-09 17:00:00 10.9 11 Oeste 35 Noroeste 0 -- -- 70
2019-04-09 16:00:00 8.7 13 Oeste 31 Sudoeste 0.8 -- -- 81
2019-04-09 15:00:00 8.1 21 Noroeste 41 Sudoeste 0.4 -- -- 82
2019-04-09 14:00:00 11.7 19 Sudoeste 36 Sudoeste 0 -- -- 59
2019-04-09 13:00:00 10.6 14 Oeste 38 Sudoeste 0 -- -- 62
2019-04-09 12:00:00 9 14 Sudoeste 28 Sudoeste 0 -- -- 70
2019-04-09 11:00:00 8 14 Sudoeste 29 Sudoeste 0.2 -- -- 78
2019-04-09 10:00:00 6.6 10 Sudoeste 21 Sudoeste 0 -- -- 85
2019-04-09 09:00:00 5.1 3 Oeste 9 Oeste 0 -- -- 91
2019-04-09 08:00:00 4.7 3 Noroeste 12 Norte 0 -- -- 92
2019-04-09 07:00:00 3.8 0 Calma 6 Oeste 0 -- -- 89
2019-04-09 06:00:00 4.2 3 Noroeste 9 Oeste 0 -- -- 91
2019-04-09 05:00:00 3.6 0 Calma 4 Sur 0 -- -- 89
2019-04-09 04:00:00 5.1 3 Norte 9 Noroeste 0 -- -- 85
2019-04-09 03:00:00 6.1 3 Noroeste 15 Noroeste 0 -- -- 84
2019-04-09 02:00:00 7.2 5 Noroeste 23 Oeste 0 -- -- 78
2019-04-09 01:00:00 8.1 12 Noroeste 25 Oeste 0 -- -- 73
2019-04-09 00:00:00 8.9 8 Noroeste 17 Oeste 0 -- -- 68
2019-04-08 23:00:00 9.4 6 Oeste 15 Oeste 0 -- -- 63
2019-04-08 22:00:00 10.8 6 Oeste 23 Sudoeste 0 -- -- 62
2019-04-08 21:00:00 12.2 8 Oeste 22 Sudoeste 0 -- -- 55
2019-04-08 20:00:00 14.3 10 Sudoeste 26 Oeste 0 -- -- 49
2019-04-08 19:00:00 14.9 12 Sudoeste 32 Oeste 0 -- -- 49
2019-04-08 18:00:00 15.3 10 Oeste 30 Noroeste 0 -- -- 51
2019-04-08 17:00:00 15.7 15 Oeste 35 Oeste 0 -- -- 48
2019-04-08 16:00:00 14.9 15 Oeste 37 Oeste 0 -- -- 60
2019-04-08 15:00:00 14.1 10 Sudoeste 22 Oeste 0 -- -- 65
2019-04-08 14:00:00 11.4 12 Noroeste 43 Sudoeste 0.6 -- -- 87
2019-04-08 13:00:00 11 15 Sudoeste 27 Sudoeste 0 -- -- 87
2019-04-08 12:00:00 10.8 13 Sudoeste 23 Sudoeste 0 -- -- 85
2019-04-08 11:00:00 9.8 11 Sudoeste 22 Sudoeste 0.2 -- -- 91
2019-04-08 10:00:00 9.4 6 Sudoeste 18 Sudoeste 0.4 -- -- 95
2019-04-08 09:00:00 8.9 9 Sudoeste 21 Sudoeste 0.2 -- -- 96
2019-04-08 08:00:00 8.7 9 Sudoeste 18 Sudoeste 0.2 -- -- 97
2019-04-08 07:00:00 8.7 10 Sudoeste 17 Sudoeste 0.8 -- -- 97
2019-04-08 06:00:00 8.6 8 Sudoeste 15 Sudoeste 0.2 -- -- 96
2019-04-08 05:00:00 8.6 8 Sudoeste 19 Sudoeste 0.2 -- -- 97
2019-04-08 04:00:00 7.7 7 Sur 14 Sur 0.8 -- -- 98
2019-04-08 03:00:00 7.6 10 Sur 14 Sur 0.8 -- -- 97
2019-04-08 02:00:00 7.7 6 Sudeste 10 Sudeste 0 -- -- 95
2019-04-08 01:00:00 7.7 5 Sudeste 8 Sudeste 0 -- -- 95
2019-04-08 00:00:00 7.8 6 Sur 14 Sur 0.2 -- -- 92
2019-04-07 23:00:00 8.1 0 Calma 4 Noroeste 0 -- -- 84
2019-04-07 22:00:00 8.3 3 Noroeste 6 Noroeste 0.2 -- -- 84
2019-04-07 21:00:00 8.8 3 Oeste 15 Noroeste 0 -- -- 78
2019-04-07 20:00:00 10 3 Noroeste 23 Oeste 0 -- -- 66
2019-04-07 19:00:00 11 8 Oeste 33 Oeste 0 -- -- 58
2019-04-07 18:00:00 11.9 13 Sudoeste 26 Oeste 0 -- -- 56
2019-04-07 17:00:00 11.4 10 Noroeste 29 Oeste 0 -- -- 52
2019-04-07 16:00:00 11.1 15 Noroeste 33 Noroeste 0 -- -- 50
2019-04-07 15:00:00 10.8 13 Oeste 32 Noroeste 0 -- -- 51
2019-04-07 14:00:00 10 14 Noroeste 35 Noroeste 0 -- -- 56
2019-04-07 13:00:00 9 12 Oeste 34 Noroeste 0 -- -- 62
2019-04-07 12:00:00 7.8 13 Noroeste 33 Noroeste 0 -- -- 67
2019-04-07 11:00:00 6.6 15 Noroeste 35 Noroeste 0 -- -- 74
2019-04-07 10:00:00 5.4 17 Noroeste 36 Noroeste 0 -- -- 87
2019-04-07 09:00:00 4.3 17 Noroeste 32 Noroeste 0 -- -- 89
2019-04-07 08:00:00 4.2 12 Noroeste 31 Oeste 0 -- -- 90
2019-04-07 07:00:00 4.2 4 Oeste 15 Oeste 0 -- -- 91
2019-04-07 06:00:00 4.1 4 Oeste 12 Oeste 0.2 -- -- 91
2019-04-07 05:00:00 4 3 Oeste 14 Sudoeste 0.4 -- -- 91
2019-04-07 04:00:00 3.7 7 Sudoeste 14 Sudoeste 0 -- -- 92
2019-04-07 03:00:00 1.6 0 Calma 9 Sur 0 -- -- 93
2019-04-07 02:00:00 2.8 3 Sur 11 Sur 0 -- -- 88
2019-04-07 01:00:00 3.8 6 Sudoeste 15 Sudoeste 0 -- -- 85
2019-04-07 00:00:00 4.5 7 Sudoeste 18 Sudoeste 0 -- -- 81
2019-04-06 23:00:00 5.4 9 Sudoeste 23 Sudoeste 0 -- -- 76
2019-04-06 22:00:00 5.6 9 Sudoeste 26 Sudoeste 0 -- -- 75
2019-04-06 21:00:00 6.7 10 Oeste 31 Sudoeste 0 -- -- 71
2019-04-06 20:00:00 7.8 14 Sudoeste 29 Oeste 0 -- -- 65
2019-04-06 19:00:00 7.7 20 Sudoeste 40 Sudoeste 0 -- -- 67
2019-04-06 18:00:00 9.7 19 Sudoeste 39 Sudoeste 0 -- -- 60
2019-04-06 17:00:00 8.2 22 Sudoeste 40 Sudoeste 0 -- -- 71
2019-04-06 16:00:00 7.3 18 Sudoeste 42 Sudoeste 0.2 -- -- 73
2019-04-06 15:00:00 9.7 20 Sudoeste 41 Sudoeste 0 -- -- 61
2019-04-06 14:00:00 8.4 21 Sudoeste 42 Sudoeste 0 -- -- 74
2019-04-06 13:00:00 4.9 14 Sudoeste 37 Sudoeste 0.8 -- -- 88
2019-04-06 12:00:00 5.6 17 Sudoeste 28 Sur 0 -- -- 88
2019-04-06 11:00:00 5.1 16 Sudoeste 30 Sur 0 -- -- 87
2019-04-06 10:00:00 4.7 11 Sudoeste 24 Sudoeste 0 -- -- 86
2019-04-06 09:00:00 3.7 10 Sudoeste 21 Sudoeste 0 -- -- 90
2019-04-06 08:00:00 3.3 11 Sudoeste 22 Sudoeste 0 -- -- 89
2019-04-06 07:00:00 3.4 7 Sudoeste 20 Sudoeste 0 -- -- 91
2019-04-06 06:00:00 3.5 6 Sudoeste 17 Sudoeste 0 -- -- 92
2019-04-06 05:00:00 3.4 9 Sudoeste 21 Sudoeste 0.2 -- -- 93
2019-04-06 04:00:00 3.4 10 Sudoeste 24 Sudoeste 0 -- -- 92
2019-04-06 03:00:00 3.9 8 Sudoeste 22 Sudoeste 0 -- -- 90
2019-04-06 02:00:00 4.2 10 Sudoeste 30 Sudoeste 0 -- -- 87
2019-04-06 01:00:00 4.1 11 Sudoeste 21 Sudoeste 0 -- -- 85
2019-04-06 00:00:00 3.7 11 Sudoeste 22 Sudoeste 0 -- -- 82
2019-04-05 23:00:00 3.3 9 Sudoeste 18 Sudoeste 0.2 -- -- 84
2019-04-05 22:00:00 3.7 4 Sudoeste 17 Oeste 0 -- -- 81
2019-04-05 21:00:00 4.1 9 Sudoeste 24 Sudoeste 0 -- -- 82
2019-04-05 20:00:00 4.7 7 Oeste 28 Oeste 0.6 -- -- 86
2019-04-05 19:00:00 4.3 6 Noroeste 36 Sudoeste 1.6 -- -- 92
2019-04-05 18:00:00 7.6 17 Sur 28 Sur 0 -- -- 82
2019-04-05 17:00:00 6.7 17 Sur 29 Sur 0 -- -- 88
2019-04-05 16:00:00 5.7 18 Sur 44 Sudoeste 3.6 -- -- 94
2019-04-05 15:00:00 7.6 26 Sur 37 Sur 0 -- -- 86
2019-04-05 14:00:00 7.1 21 Sur 36 Sur 0 -- -- 87
2019-04-05 13:00:00 7 22 Sur 34 Sur 0.2 -- -- 87
2019-04-05 12:00:00 6.7 23 Sur 33 Sur 1 -- -- 89
2019-04-05 11:00:00 7 24 Sur 38 Sur 0 -- -- 81
2019-04-05 10:00:00 6.7 18 Sur 26 Sur 0.4 -- -- 87
2019-04-05 09:00:00 5.9 12 Sur 19 Sur 0.6 -- -- 89
2019-04-05 08:00:00 6 13 Sur 22 Sur 0 -- -- 81
2019-04-05 07:00:00 6.4 14 Sudoeste 28 Sur 0 -- -- 73
2019-04-05 06:00:00 6.9 18 Sudoeste 26 Sudoeste 0 -- -- 65
2019-04-05 05:00:00 7.2 12 Sur 18 Sudoeste 0 -- -- 58
2019-04-05 04:00:00 7.1 9 Sudoeste 15 Sur 0 -- -- 62
2019-04-05 03:00:00 7.3 8 Sur 11 Sur 0 -- -- 65
2019-04-05 02:00:00 7.7 4 Sur 8 Sur 0 -- -- 61
2019-04-05 01:00:00 8 3 Sudeste 18 Sudoeste 0 -- -- 54
2019-04-05 00:00:00 7.5 7 Sudoeste 9 Sudoeste 0 -- -- 52
2019-04-04 23:00:00 6.8 0 Calma 2 Sur 0 -- -- 52
2019-04-04 22:00:00 8.1 2 Sudeste 4 Sudeste 0 -- -- 47
2019-04-04 21:00:00 10.1 4 Sur 15 Sur 0 -- -- 43
2019-04-04 20:00:00 12.6 12 Sur 26 Sur 0 -- -- 33
2019-04-04 19:00:00 14.4 9 Sudoeste 28 Sur 0 -- -- 28
2019-04-04 18:00:00 14.2 5 Oeste 19 Sudoeste 0 -- -- 25
2019-04-04 17:00:00 13.5 8 Sudoeste 21 Sudoeste 0 -- -- 26
2019-04-04 16:00:00 12.7 7 Sudoeste 27 Sudoeste 0 -- -- 28
2019-04-04 15:00:00 11.8 8 Sudoeste 22 Sudoeste 0 -- -- 29
2019-04-04 14:00:00 10.6 6 Sur 15 Noroeste 0 -- -- 34
2019-04-04 13:00:00 8.6 5 Sur 14 Sudeste 0 -- -- 38
2019-04-04 12:00:00 6.5 7 Norte 13 Noroeste 0 -- -- 44
2019-04-04 11:00:00 4.9 2 Este 13 Norte 0 -- -- 57
2019-04-04 10:00:00 2.9 5 Norte 9 Norte 0 -- -- 69
2019-04-04 09:00:00 0.2 0 Calma 2 Este 0 -- -- 87
2019-04-04 08:00:00 -1.1 0 Calma 3 Noroeste 0 -- -- 84
2019-04-04 07:00:00 -0.7 0 Calma 3 Sudeste 0 -- -- 84
2019-04-04 06:00:00 -0.2 0 Calma 3 Sudeste 0 -- -- 83
2019-04-04 05:00:00 0.8 0 Calma 6 Noroeste 0 -- -- 78
2019-04-04 04:00:00 2.1 3 Norte 6 Norte 0 -- -- 76
2019-04-04 03:00:00 2.5 4 Norte 9 Norte 0 -- -- 73
2019-04-04 02:00:00 3.6 4 Noroeste 11 Noroeste 0 -- -- 67
2019-04-04 01:00:00 5.7 5 Norte 14 Noroeste 0 -- -- 54
2019-04-04 00:00:00 7.7 6 Noroeste 20 Noroeste 0 -- -- 47
2019-04-03 23:00:00 9.1 9 Noroeste 17 Norte 0 -- -- 46
2019-04-03 22:00:00 10.5 8 Noroeste 28 Norte 0 -- -- 46
2019-04-03 21:00:00 11.4 12 Noroeste 32 Norte 0 -- -- 40
2019-04-03 20:00:00 12.5 18 Noroeste 37 Noroeste 0 -- -- 40
2019-04-03 19:00:00 14.2 19 Noroeste 37 Noroeste 0 -- -- 43
2019-04-03 18:00:00 16.4 19 Noroeste 38 Noroeste 0 -- -- 37
2019-04-03 17:00:00 16.3 12 Oeste 36 Oeste 0 -- -- 38
2019-04-03 16:00:00 16.7 14 Oeste 30 Sudoeste 0 -- -- 38
2019-04-03 15:00:00 16.5 12 Oeste 38 Oeste 0 -- -- 40
2019-04-03 14:00:00 15.5 17 Sudoeste 35 Sudoeste 0 -- -- 37
2019-04-03 13:00:00 14.4 13 Sudoeste 36 Sur 0 -- -- 50
2019-04-03 12:00:00 13 14 Sudoeste 27 Sur 0 -- -- 59
2019-04-03 11:00:00 10.9 13 Sudoeste 21 Sur 0 -- -- 80
2019-04-03 10:00:00 7.1 8 Sur 12 Sur 0 -- -- 96
2019-04-03 09:00:00 4.7 2 Sudeste 4 Sudeste 0 -- -- 97
2019-04-03 08:00:00 4.5 0 Calma 3 Norte 0 -- -- 94
2019-04-03 07:00:00 4.8 0 Calma 4 Norte 0 -- -- 94
2019-04-03 06:00:00 5.4 0 Calma 2 Noroeste 0 -- -- 93
2019-04-03 05:00:00 5.9 0 Calma 3 Sudeste 0 -- -- 93
2019-04-03 04:00:00 6.2 0 Calma 4 Noroeste 0 -- -- 93
2019-04-03 03:00:00 6.2 2 Noroeste 4 Noroeste 0 -- -- 92
2019-04-03 02:00:00 6.6 0 Calma 5 Sudeste 0 -- -- 91
2019-04-03 01:00:00 7.2 3 Sudeste 6 Sudeste 0 -- -- 91
2019-04-03 00:00:00 8.6 0 Calma 4 Sudeste 0 -- -- 85
2019-04-02 23:00:00 10.1 2 Este 6 Sudeste 0 -- -- 83
2019-04-02 22:00:00 11.2 0 Calma 9 Este 0 -- -- 80
2019-04-02 21:00:00 11.8 0 Calma 17 Noroeste 0 -- -- 78
2019-04-02 20:00:00 12.2 12 Norte 37 Noroeste 0 -- -- 73
2019-04-02 19:00:00 17 8 Noroeste 21 Oeste 0 -- -- 47
2019-04-02 18:00:00 16.7 10 Sudoeste 24 Sudoeste 0.2 -- -- 48
2019-04-02 17:00:00 15.2 8 Sudoeste 22 Sudoeste 0 -- -- 63
2019-04-02 16:00:00 15.7 10 Sudoeste 23 Sudoeste 0 -- -- 61
2019-04-02 15:00:00 16 12 Sudoeste 21 Sudoeste 0 -- -- 62
2019-04-02 14:00:00 15.4 10 Sudoeste 23 Sudoeste 0 -- -- 66
2019-04-02 13:00:00 13.8 16 Sur 22 Sur 0 -- -- 79
2019-04-02 12:00:00 11.7 9 Sur 15 Sur 0 -- -- 90
2019-04-02 11:00:00 9.9 8 Sur 12 Sur 0 -- -- 95
2019-04-02 10:00:00 8.6 2 Sudeste 4 Sur 0 -- -- 97
2019-04-02 09:00:00 7.7 0 Calma 3 Nordeste 0 -- -- 97
2019-04-02 08:00:00 7.5 0 Calma 2 Este 0 -- -- 96
2019-04-02 07:00:00 7.8 0 Calma 4 Este 0 -- -- 94
2019-04-02 06:00:00 8.6 0 Calma 4 Sur 0.2 -- -- 95
2019-04-02 05:00:00 8.6 0 Calma 5 Sur 0 -- -- 95
2019-04-02 04:00:00 8.8 0 Calma 4 Sudeste 0 -- -- 94
2019-04-02 03:00:00 9.1 0 Calma 4 Sudeste 0 -- -- 93
2019-04-02 02:00:00 9.2 0 Calma 6 Sur 0 -- -- 93
2019-04-02 01:00:00 9.4 4 Sudeste 13 Sudeste 0 -- -- 93
2019-04-02 00:00:00 9.9 8 Sudeste 14 Sudeste 0 -- -- 93
2019-04-01 23:00:00 9.8 0 Calma 10 Sur 0 -- -- 90
2019-04-01 22:00:00 10.3 4 Sudeste 7 Sur 0 -- -- 89
2019-04-01 21:00:00 11.1 3 Sudeste 9 Sur 0 -- -- 85
2019-04-01 20:00:00 12.9 7 Sudeste 18 Sur 0 -- -- 79
2019-04-01 19:00:00 12.6 13 Sur 28 Sur 0 -- -- 81
2019-04-01 18:00:00 12.1 21 Sur 37 Sur 0 -- -- 80
2019-04-01 17:00:00 14.5 6 Sudoeste 19 Sudoeste 0 -- -- 61
2019-04-01 16:00:00 14.1 9 Sudoeste 20 Sur 0 -- -- 67
2019-04-01 15:00:00 15.1 13 Sudoeste 23 Sudoeste 0 -- -- 63
2019-04-01 14:00:00 13.9 10 Sur 19 Sudeste 0 -- -- 73
2019-04-01 13:00:00 13 10 Sur 17 Sur 0 -- -- 79
2019-04-01 12:00:00 11 5 Sudeste 15 Sudeste 0 -- -- 88
2019-04-01 11:00:00 9.8 9 Sudeste 15 Sudeste 0 -- -- 95
2019-04-01 10:00:00 9.2 8 Sudeste 12 Sudeste 0 -- -- 96
2019-04-01 09:00:00 8.5 3 Este 6 Este 0.4 -- -- 96
2019-04-01 08:00:00 8.3 0 Calma 4 Este 0 -- -- 95
2019-04-01 07:00:00 8.2 0 Calma 8 Este 0 -- -- 96
2019-04-01 06:00:00 8.1 3 Este 5 Este 0.4 -- -- 96
2019-04-01 05:00:00 8.1 0 Calma 5 Este 1.8 -- -- 97
2019-04-01 04:00:00 8.1 0 Calma 6 Nordeste 1.2 -- -- 96
2019-04-01 03:00:00 8.3 2 Este 6 Este 0 -- -- 95
2019-04-01 02:00:00 8.4 2 Nordeste 5 Sudeste 0 -- -- 96
2019-04-01 01:00:00 8.4 0 Calma 6 Sudeste 0.4 -- -- 97
2019-04-01 00:00:00 8.3 2 Este 9 Nordeste 1.4 -- -- 96
2019-03-31 23:00:00 8.5 0 Calma 7 Este 1.6 -- -- 96
2019-03-31 22:00:00 8.7 3 Este 12 Sudeste 1.4 -- -- 95
2019-03-31 21:00:00 8.9 3 Este 8 Este 0.2 -- -- 93
2019-03-31 20:00:00 9.2 3 Este 14 Este 0 -- -- 92
2019-03-31 19:00:00 9.4 6 Este 14 Este 0 -- -- 91
2019-03-31 18:00:00 9.7 8 Sudeste 17 Este 0.2 -- -- 90
2019-03-31 17:00:00 9.9 10 Este 18 Este 0.4 -- -- 89
2019-03-31 16:00:00 9.8 7 Este 20 Este 0.8 -- -- 90
2019-03-31 15:00:00 9.7 10 Sudeste 17 Sudeste 1.2 -- -- 92
2019-03-31 14:00:00 9.5 10 Sudeste 19 Este 0.4 -- -- 89
2019-03-31 13:00:00 8.8 9 Este 19 Este 1 -- -- 93
2019-03-31 12:00:00 7.2 8 Este 25 Este 1.4 -- -- 93
2019-03-31 11:00:00 6.6 13 Este 26 Este 1.8 -- -- 93
2019-03-31 10:00:00 6.2 17 Este 31 Este 0.8 -- -- 91
2019-03-31 09:00:00 6.5 17 Este 35 Este 0 -- -- 87
2019-03-31 08:00:00 7 19 Este 35 Este 0 -- -- 83
2019-03-31 07:00:00 6.9 13 Este 24 Sudeste 0 -- -- 84
2019-03-31 06:00:00 6.6 10 Sudeste 22 Este 0 -- -- 84
2019-03-31 05:00:00 6.2 6 Sudeste 23 Sudeste 0 -- -- 81
2019-03-31 03:00:00 6.9 5 Este 12 Este 0 -- -- 72
2019-03-31 01:00:00 7.8 7 Este 23 Este 0 -- -- 69
2019-03-31 00:00:00 8.4 10 Este 22 Este 0 -- -- 65
2019-03-30 23:00:00 8.9 11 Este 27 Sudeste 0 -- -- 61
2019-03-30 22:00:00 9.9 13 Este 30 Este 0 -- -- 64
2019-03-30 21:00:00 11.6 10 Este 30 Sudeste 0 -- -- 61
2019-03-30 20:00:00 13.9 16 Este 28 Este 0 -- -- 50
2019-03-30 19:00:00 15.8 16 Este 31 Sudeste 0 -- -- 44
2019-03-30 18:00:00 17.8 18 Sudeste 33 Sudeste 0 -- -- 39
2019-03-30 17:00:00 18.4 17 Este 32 Este 0 -- -- 38
2019-03-30 16:00:00 18.5 13 Este 33 Sudeste 0 -- -- 37
2019-03-30 15:00:00 18 15 Sudeste 29 Sudeste 0 -- -- 38
2019-03-30 14:00:00 16.3 16 Sudeste 28 Este 0 -- -- 42
2019-03-30 13:00:00 14.7 15 Sudeste 30 Este 0 -- -- 47
2019-03-30 12:00:00 12.7 16 Este 31 Sudeste 0 -- -- 53
2019-03-30 11:00:00 10.8 15 Este 30 Sudeste 0 -- -- 62
2019-03-30 10:00:00 9 18 Este 34 Este 0 -- -- 70
2019-03-30 09:00:00 6.4 13 Este 24 Este 0 -- -- 83
2019-03-30 08:00:00 4.1 6 Sudeste 13 Este 0 -- -- 92
2019-03-30 07:00:00 3.1 0 Calma 10 Este 0 -- -- 88
2019-03-30 06:00:00 3.5 3 Este 10 Sudeste 0 -- -- 88
2019-03-30 05:00:00 4 3 Este 11 Este 0 -- -- 86
2019-03-30 04:00:00 4.2 3 Este 15 Este 0 -- -- 83
2019-03-30 03:00:00 4.6 4 Sudeste 13 Sudeste 0 -- -- 73
2019-03-30 02:00:00 5.2 3 Sudeste 23 Sudeste 0 -- -- 65
2019-03-30 01:00:00 6.5 15 Sudeste 27 Este 0 -- -- 61
2019-03-30 00:00:00 6.7 7 Sudeste 25 Este 0 -- -- 60
2019-03-29 23:00:00 7.6 13 Este 29 Este 0 -- -- 58
2019-03-29 22:00:00 8.7 16 Este 33 Este 0 -- -- 54
2019-03-29 21:00:00 10 12 Este 28 Este 0 -- -- 54
2019-03-29 20:00:00 11.5 10 Sudeste 30 Sudeste 0 -- -- 47
2019-03-29 19:00:00 13.7 21 Sudeste 39 Sudeste 0 -- -- 42
2019-03-29 18:00:00 15.8 25 Sudeste 47 Sudeste 0 -- -- 37
2019-03-29 17:00:00 16.9 27 Sudeste 46 Sudeste 0 -- -- 35
2019-03-29 16:00:00 15.3 27 Sudeste 46 Sudeste 0 -- -- 39
2019-03-29 15:00:00 16.3 26 Sudeste 48 Sudeste 0 -- -- 36
2019-03-29 14:00:00 16.1 27 Sudeste 51 Sudeste 0 -- -- 34
2019-03-29 13:00:00 14.7 28 Sudeste 50 Sudeste 0 -- -- 36
2019-03-29 12:00:00 13 24 Sudeste 41 Sudeste 0 -- -- 38
2019-03-29 11:00:00 11.4 21 Sudeste 38 Este 0 -- -- 42
2019-03-29 10:00:00 9.6 21 Sudeste 31 Este 0 -- -- 43
2019-03-29 09:00:00 7.3 15 Este 25 Sudeste 0 -- -- 54
2019-03-29 08:00:00 3.1 5 Este 12 Este 0 -- -- 64
2019-03-29 07:00:00 1.1 5 Sudeste 11 Este 0 -- -- 64
2019-03-29 06:00:00 3 6 Este 13 Este 0 -- -- 59
2019-03-29 05:00:00 4 8 Este 19 Este 0 -- -- 58
2019-03-29 04:00:00 4.8 10 Este 19 Este 0 -- -- 58
2019-03-29 03:00:00 4.9 8 Este 15 Este 0 -- -- 55
2019-03-29 02:00:00 4.6 3 Sudeste 10 Este 0 -- -- 51
2019-03-29 01:00:00 5.4 6 Sudeste 10 Sudeste 0 -- -- 48
2019-03-29 00:00:00 5.9 4 Sudeste 14 Sudeste 0 -- -- 45
2019-03-28 23:00:00 7 8 Este 14 Este 0 -- -- 39
2019-03-28 22:00:00 8.3 7 Sudeste 14 Este 0 -- -- 37
2019-03-28 21:00:00 10.5 6 Este 13 Este 0 -- -- 32
2019-03-28 20:00:00 12.8 7 Sudeste 19 Sudeste 0 -- -- 29
2019-03-28 19:00:00 16.2 15 Sudeste 28 Sudeste 0 -- -- 24
2019-03-28 18:00:00 18.2 15 Sudeste 27 Este 0 -- -- 21
2019-03-28 17:00:00 18.9 14 Sudeste 28 Sudeste 0 -- -- 21
2019-03-28 16:00:00 18.5 11 Este 27 Sudeste 0 -- -- 21
2019-03-28 15:00:00 18.3 13 Sudeste 28 Este 0 -- -- 20
2019-03-28 14:00:00 17.1 11 Este 26 Este 0 -- -- 21
2019-03-28 13:00:00 15.9 9 Este 29 Sudeste 0 -- -- 22
2019-03-28 12:00:00 14.4 16 Sudeste 30 Sudeste 0 -- -- 25
2019-03-28 11:00:00 12.3 12 Sudeste 21 Sudeste 0 -- -- 28
2019-03-28 10:00:00 9.6 8 Este 18 Nordeste 0 -- -- 32
2019-03-28 09:00:00 6.4 7 Este 15 Nordeste 0 -- -- 49
2019-03-28 08:00:00 1.3 4 Noroeste 7 Noroeste 0 -- -- 63
2019-03-28 07:00:00 1.3 0 Calma 9 Sudeste 0 -- -- 62
2019-03-28 06:00:00 2.2 4 Este 14 Este 0 -- -- 61
2019-03-28 05:00:00 3.1 11 Este 20 Este 0 -- -- 60
2019-03-28 04:00:00 3.4 4 Este 12 Este 0 -- -- 57
2019-03-28 03:00:00 4.4 3 Este 14 Este 0 -- -- 52
2019-03-28 02:00:00 4.5 6 Este 12 Sudeste 0 -- -- 50
2019-03-28 01:00:00 5.1 3 Sur 12 Sudeste 0 -- -- 44
2019-03-28 00:00:00 6.6 9 Sudeste 22 Sudeste 0 -- -- 40
2019-03-27 23:00:00 6.8 9 Sudeste 18 Este 0 -- -- 37
2019-03-27 22:00:00 7.5 5 Sudeste 10 Sudeste 0 -- -- 33
2019-03-27 21:00:00 9.5 0 Calma 9 Sur 0 -- -- 32
2019-03-27 20:00:00 11.7 9 Sur 17 Sur 0 -- -- 30
2019-03-27 19:00:00 16.2 12 Sur 19 Sur 0 -- -- 25
2019-03-27 18:00:00 18.5 9 Sudeste 17 Sudeste 0 -- -- 24
2019-03-27 17:00:00 19 6 Sudeste 20 Nordeste 0 -- -- 24
2019-03-27 16:00:00 17.5 5 Nordeste 19 Este 0 -- -- 26
2019-03-27 15:00:00 16.6 8 Norte 22 Nordeste 0 -- -- 26
2019-03-27 14:00:00 15.9 7 Este 23 Este 0 -- -- 27
2019-03-27 13:00:00 14.4 8 Este 21 Este 0 -- -- 30
2019-03-27 12:00:00 12.6 11 Sudeste 22 Sudeste 0 -- -- 34
2019-03-27 11:00:00 10.7 9 Este 24 Sudeste 0 -- -- 41
2019-03-27 10:00:00 9 13 Sudeste 26 Este 0 -- -- 46
2019-03-27 09:00:00 6.6 13 Sudeste 22 Sudeste 0 -- -- 57
2019-03-27 08:00:00 3.2 2 Noroeste 6 Norte 0 -- -- 72
2019-03-27 07:00:00 2.7 3 Noroeste 8 Noroeste 0 -- -- 75
2019-03-27 06:00:00 3.2 0 Calma 5 Sudoeste 0 -- -- 79
2019-03-27 05:00:00 3.9 0 Calma 5 Sudeste 0 -- -- 80
2019-03-27 04:00:00 4.7 4 Sudeste 28 Este 0 -- -- 76
2019-03-27 03:00:00 6 14 Sudeste 23 Sudeste 0 -- -- 73
2019-03-27 02:00:00 5.8 6 Sur 36 Este 0 -- -- 76
2019-03-27 01:00:00 6 15 Este 47 Este 0 -- -- 74
2019-03-27 00:00:00 7 22 Este 39 Este 0 -- -- 69
2019-03-26 23:00:00 8.4 16 Este 30 Este 0 -- -- 56
2019-03-26 22:00:00 9.9 11 Sudeste 31 Este 0 -- -- 46
2019-03-26 21:00:00 11.5 18 Este 30 Este 0 -- -- 43
2019-03-26 20:00:00 13.2 16 Sudeste 29 Sudeste 0 -- -- 35
2019-03-26 19:00:00 16.2 19 Sudeste 33 Sudeste 0 -- -- 31
2019-03-26 18:00:00 18.3 24 Sudeste 40 Sudeste 0 -- -- 28
2019-03-26 17:00:00 19.5 23 Este 39 Sudeste 0 -- -- 26
2019-03-26 16:00:00 20.1 18 Este 36 Sudeste 0 -- -- 27
2019-03-26 15:00:00 19.7 19 Este 38 Sudeste 0 -- -- 28
2019-03-26 14:00:00 19.1 20 Sudeste 40 Sudeste 0 -- -- 32
2019-03-26 13:00:00 17.7 23 Sudeste 42 Sudeste 0 -- -- 33
2019-03-26 12:00:00 16.1 21 Este 39 Este 0 -- -- 35
2019-03-26 11:00:00 14.1 23 Este 39 Sudeste 0 -- -- 38
2019-03-26 10:00:00 12.4 15 Este 28 Este 0 -- -- 40
2019-03-26 09:00:00 8.6 5 Este 17 Este 0 -- -- 49
2019-03-26 08:00:00 6.3 7 Norte 21 Norte 0 -- -- 54
2019-03-26 07:00:00 3.7 5 Noroeste 17 Norte 0 -- -- 59
2019-03-26 06:00:00 4 7 Norte 13 Norte 0 -- -- 59
2019-03-26 05:00:00 4.6 5 Noroeste 9 Noroeste 0 -- -- 55
2019-03-26 04:00:00 6.7 7 Noroeste 11 Noroeste 0 -- -- 52
2019-03-26 03:00:00 7.5 4 Noroeste 9 Norte 0 -- -- 49
2019-03-26 02:00:00 8 4 Noroeste 8 Noroeste 0 -- -- 47
2019-03-26 01:00:00 8.1 3 Norte 8 Norte 0 -- -- 44
2019-03-26 00:00:00 9.3 5 Noroeste 14 Noroeste 0 -- -- 36
2019-03-25 23:00:00 9.5 8 Noroeste 16 Norte 0 -- -- 34
2019-03-25 22:00:00 10.6 6 Noroeste 12 Noroeste 0 -- -- 30
2019-03-25 21:00:00 12.7 5 Noroeste 16 Norte 0 -- -- 27
2019-03-25 20:00:00 16.4 9 Norte 18 Norte 0 -- -- 25
2019-03-25 19:00:00 19.5 9 Norte 21 Norte 0 -- -- 25
2019-03-25 18:00:00 21.5 10 Norte 19 Nordeste 0 -- -- 23
2019-03-25 17:00:00 22.4 4 Norte 18 Este 0 -- -- 20
2019-03-25 16:00:00 22 5 Sudeste 24 Nordeste 0 -- -- 19
2019-03-25 15:00:00 21.2 7 Este 21 Este 0 -- -- 23
2019-03-25 14:00:00 20.3 7 Nordeste 27 Este 0 -- -- 22
2019-03-25 13:00:00 19.7 10 Sudeste 22 Sudeste 0 -- -- 24
2019-03-25 12:00:00 17.1 5 Sudeste 18 Este 0 -- -- 29
2019-03-25 11:00:00 15.8 8 Nordeste 20 Nordeste 0 -- -- 31
2019-03-25 10:00:00 13.3 10 Norte 17 Nordeste 0 -- -- 37
2019-03-25 09:00:00 8 5 Noroeste 12 Noroeste 0 -- -- 50
2019-03-25 08:00:00 4.3 9 Noroeste 16 Noroeste 0 -- -- 56
2019-03-25 07:00:00 3.6 8 Noroeste 12 Noroeste 0 -- -- 56
2019-03-25 06:00:00 3.8 5 Noroeste 9 Noroeste 0 -- -- 57
2019-03-25 05:00:00 3.7 5 Noroeste 9 Noroeste 0 -- -- 57
2019-03-25 04:00:00 4 5 Noroeste 10 Noroeste 0 -- -- 54
2019-03-25 03:00:00 4.8 5 Noroeste 10 Noroeste 0 -- -- 54
2019-03-25 02:00:00 5.8 5 Noroeste 9 Noroeste 0 -- -- 48
2019-03-25 01:00:00 8.1 3 Nordeste 17 Este 0 -- -- 45
2019-03-25 00:00:00 8.7 8 Este 18 Este 0 -- -- 43
2019-03-24 23:00:00 9 8 Este 16 Este 0 -- -- 42
2019-03-24 22:00:00 10 0 Calma 5 Nordeste 0 -- -- 41
2019-03-24 21:00:00 11.7 4 Este 13 Este 0 -- -- 38
2019-03-24 20:00:00 13.8 6 Sudeste 22 Sudeste 0 -- -- 33
2019-03-24 19:00:00 16.7 14 Sudeste 28 Sudeste 0 -- -- 30
2019-03-24 18:00:00 18.4 14 Sudeste 32 Sudeste 0 -- -- 28
2019-03-24 17:00:00 19.9 19 Sudeste 35 Sudeste 0 -- -- 26
2019-03-24 16:00:00 20.5 18 Este 36 Sudeste 0 -- -- 27
2019-03-24 15:00:00 20 20 Sudeste 45 Sudeste 0 -- -- 27
2019-03-24 14:00:00 19.4 24 Sudeste 44 Sudeste 0 -- -- 28
2019-03-24 13:00:00 18.2 22 Sudeste 37 Sudeste 0 -- -- 31
2019-03-24 12:00:00 16.2 14 Este 33 Este 0 -- -- 39
2019-03-24 11:00:00 14.5 17 Sudeste 44 Sudeste 0 -- -- 43
2019-03-24 10:00:00 12.6 15 Este 31 Este 0 -- -- 47
2019-03-24 09:00:00 8.2 5 Este 10 Nordeste 0 -- -- 63
2019-03-24 08:00:00 3.8 2 Noroeste 6 Norte 0 -- -- 75
2019-03-24 07:00:00 3.6 4 Noroeste 8 Noroeste 0 -- -- 75
2019-03-24 06:00:00 4.5 4 Noroeste 6 Noroeste 0 -- -- 73
2019-03-24 05:00:00 6.5 2 Noroeste 13 Este 0 -- -- 68
2019-03-24 04:00:00 7 8 Nordeste 16 Nordeste 0 -- -- 69
2019-03-24 03:00:00 7.3 5 Este 13 Este 0 -- -- 70
2019-03-24 02:00:00 7.5 9 Este 15 Este 0 -- -- 71
2019-03-24 01:00:00 8.1 9 Este 19 Nordeste 0 -- -- 69
2019-03-24 00:00:00 8.4 9 Este 17 Este 0 -- -- 67
2019-03-23 23:00:00 9.4 7 Este 20 Este 0 -- -- 62
2019-03-23 22:00:00 10.3 9 Este 25 Este 0 -- -- 56
2019-03-23 21:00:00 11 9 Este 18 Este 0 -- -- 51
2019-03-23 20:00:00 13 12 Sudeste 33 Sudeste 0 -- -- 45
2019-03-23 19:00:00 15.1 18 Este 36 Sudeste 0 -- -- 42
2019-03-23 18:00:00 16.6 23 Sudeste 44 Este 0 -- -- 39
2019-03-23 17:00:00 18.5 22 Sudeste 39 Sudeste 0 -- -- 36
2019-03-23 16:00:00 19.1 25 Sudeste 42 Sudeste 0 -- -- 34
2019-03-23 15:00:00 18.9 21 Sudeste 42 Sudeste 0 -- -- 34
2019-03-23 14:00:00 18.1 18 Sudeste 41 Este 0 -- -- 37
2019-03-23 13:00:00 16.4 15 Este 45 Sudeste 0 -- -- 41
2019-03-23 12:00:00 14.7 18 Este 32 Este 0 -- -- 43
2019-03-23 11:00:00 12.6 9 Este 21 Sudeste 0 -- -- 51
2019-03-23 10:00:00 10.9 11 Este 21 Nordeste 0 -- -- 54
2019-03-23 09:00:00 5.8 6 Noroeste 10 Norte 0 -- -- 73
2019-03-23 08:00:00 3.2 4 Noroeste 10 Noroeste 0 -- -- 77
2019-03-23 07:00:00 2.6 5 Noroeste 12 Noroeste 0 -- -- 76
2019-03-23 06:00:00 2.8 9 Noroeste 13 Noroeste 0 -- -- 76
2019-03-23 05:00:00 2.4 5 Norte 8 Noroeste 0 -- -- 75
2019-03-23 04:00:00 2.5 5 Norte 7 Norte 0 -- -- 74
2019-03-23 03:00:00 3 3 Noroeste 8 Noroeste 0 -- -- 70
2019-03-23 02:00:00 3.8 5 Norte 9 Noroeste 0 -- -- 69
2019-03-23 01:00:00 4.6 4 Norte 8 Noroeste 0 -- -- 66
2019-03-23 00:00:00 6.2 0 Calma 4 Sudoeste 0 -- -- 64
2019-03-22 23:00:00 7.1 0 Calma 10 Sudeste 0 -- -- 62
2019-03-22 22:00:00 8.4 7 Sudeste 13 Sudeste 0 -- -- 59
2019-03-22 21:00:00 9.8 6 Sudeste 14 Sudeste 0 -- -- 52
2019-03-22 20:00:00 12 6 Sudeste 27 Sudeste 0 -- -- 47
2019-03-22 19:00:00 14.9 15 Sudeste 33 Sudeste 0 -- -- 40
2019-03-22 18:00:00 16.8 21 Sudeste 32 Sudeste 0 -- -- 35
2019-03-22 17:00:00 17.6 15 Este 32 Sudeste 0 -- -- 33
2019-03-22 16:00:00 17.7 17 Este 32 Este 0 -- -- 31
2019-03-22 15:00:00 17.4 14 Este 35 Sudeste 0 -- -- 32
2019-03-22 14:00:00 16.8 19 Este 34 Este 0 -- -- 32
2019-03-22 13:00:00 15.6 16 Sudeste 31 Sudeste 0 -- -- 33
2019-03-22 12:00:00 13.1 12 Este 31 Este 0 -- -- 34
2019-03-22 11:00:00 11.2 12 Nordeste 27 Este 0 -- -- 36
2019-03-22 10:00:00 9.1 10 Nordeste 18 Nordeste 0 -- -- 45
2019-03-22 09:00:00 4.2 4 Noroeste 11 Noroeste 0 -- -- 68
2019-03-22 08:00:00 0.3 5 Noroeste 13 Norte 0 -- -- 76
2019-03-22 07:00:00 -1 6 Noroeste 11 Noroeste 0 -- -- 76
2019-03-22 06:00:00 -0.4 4 Noroeste 8 Noroeste 0 -- -- 78
2019-03-22 05:00:00 -0.7 5 Noroeste 8 Noroeste 0 -- -- 73
2019-03-22 04:00:00 0.2 4 Noroeste 6 Norte 0 -- -- 68
2019-03-22 03:00:00 1.9 2 Noroeste 9 Este 0 -- -- 67
2019-03-22 02:00:00 2.6 3 Este 10 Sudeste 0 -- -- 67
2019-03-22 01:00:00 3.2 5 Sudeste 14 Sudeste 0 -- -- 57
2019-03-22 00:00:00 3.6 5 Este 9 Este 0 -- -- 57
2019-03-21 23:00:00 4.7 6 Sudeste 14 Este 0 -- -- 54
2019-03-21 22:00:00 5.9 6 Sudeste 10 Sudeste 0 -- -- 47
2019-03-21 21:00:00 7.6 6 Este 17 Sudeste 0 -- -- 42
2019-03-21 20:00:00 9.9 11 Sudeste 22 Sudeste 0 -- -- 37
2019-03-21 19:00:00 12.9 16 Sudeste 25 Sudeste 0 -- -- 31
2019-03-21 18:00:00 15.5 11 Sudeste 27 Sudeste 0 -- -- 28
2019-03-21 17:00:00 15.9 11 Sudeste 28 Sudeste 0 -- -- 27
2019-03-21 16:00:00 15.5 10 Sudeste 30 Sudeste 0 -- -- 28
2019-03-21 15:00:00 15 13 Sudeste 25 Este 0 -- -- 29
2019-03-21 14:00:00 13 10 Nordeste 32 Nordeste 0 -- -- 31
2019-03-21 13:00:00 12.5 8 Este 25 Este 0 -- -- 32
2019-03-21 12:00:00 10.5 8 Este 21 Nordeste 0 -- -- 42
2019-03-21 11:00:00 8.6 5 Sudeste 16 Sudeste 0 -- -- 49
2019-03-21 10:00:00 6.2 7 Norte 15 Norte 0 -- -- 63
2019-03-21 09:00:00 2.8 5 Norte 12 Norte 0 -- -- 80
2019-03-21 08:00:00 0.4 3 Noroeste 9 Nordeste 0 -- -- 83
2019-03-21 07:00:00 -0.1 4 Nordeste 9 Nordeste 0 -- -- 83
2019-03-21 06:00:00 0.6 3 Nordeste 8 Nordeste 0 -- -- 78
2019-03-21 05:00:00 2.2 5 Nordeste 11 Nordeste 0 -- -- 73
2019-03-21 04:00:00 3 3 Nordeste 7 Sudeste 0 -- -- 69
2019-03-21 03:00:00 3.4 3 Sudeste 10 Este 0 -- -- 66
2019-03-21 02:00:00 4.3 4 Este 18 Sudeste 0 -- -- 61
2019-03-21 01:00:00 5.6 10 Sudeste 17 Sudeste 0 -- -- 59
2019-03-21 00:00:00 6.2 10 Sudeste 25 Este 0 -- -- 56